Montmorenci, IN (47962)

7:07 PM EST on February 14, 2016 (GMT -0500)
APRSWXNET | | Change Station
CLOSE
Current Station
Personal Weather Station
Location: Montmorenci, IN
Elevation: 666 ft
Nearby Weather Stations
Active Advisory: Winter Weather Advisory

Elev 666 ft 40.44 °N, 87.03 °W | Updated 21 minutes ago

Overcast
Overcast
20 °F
Feels Like 14 °F
N
4
Wind Variable Wind from ESE
Gusts 11.0 mph

Today
High -- | Low -- °F
--% Chance of Precip.
Yesterday
High -- | Low -- °F
Precip. -- in
Pressure 30.13 in
Visibility 4.0 miles
Clouds Overcast 3100 ft
Windchill 14 °F
Dew Point 16 °F
Humidity 86%
Rainfall in
Snow Depth Not available.
7:43 AM 6:21 PM
Waxing Crescent, 46% visible
METAR KLAF 142354Z 11013G19KT 4SM -SN OVC031 M08/M11 A3009 RMK AO2 SNB03 SLP201 P0000 60006 T10781106 11072 21083 58008
Pressure 30.13 in
Visibility 4.0 miles
Clouds Overcast 3100 ft
Windchill 14 °F
Dew Point 16 °F
Humidity 86%
Rainfall in
Snow Depth Not available.
7:43 AM 6:21 PM
Waxing Crescent, 46% visible
METAR KLAF 142354Z 11013G19KT 4SM -SN OVC031 M08/M11 A3009 RMK AO2 SNB03 SLP201 P0000 60006 T10781106 11072 21083 58008

10-Day Weather Forecast

Almanac

Astronomy

Feb. 14, 2016 Rise Set
Actual Time
Civil Twilight
Nautical Twilight
Astronomical Twilight
Moon
Length of Visible Light
Length of Day
Tomorrow will be .
, % of the Moon is Illuminated

Today's Extremes

State Highs State Lows

Community

WunderPhotos

Upload Photos

1,892,937 photos uploaded!

WunderBlog® & News

Nearby

Air Quality

  Air Quality AQ Index Pollutant
Not available.

Snow Depth

Station Depth Elevation

Earthquake Activity

City Distance Mag. Time & Date
Minimum magnitude displayed is 2.5.

Coastal Water Temperatures

Place Temperature

Stations

Nearby Weather Stations

Station Location Temp. Windchill Dew Point Humidity Wind Precip. Elev Updated Type
                   

Watches & Warnings

Winter Weather Advisory
Issued: 3:39 PM EST Feb. 14, 2016 – National Weather Service

... Winter Weather Advisory remains in effect until midnight EST
tonight...

* timing... heaviest snow is expected through 7 PM.

* Main impact... snow covered roads and poor travel conditions.
Snow accumulations of 2 to 4 inches are expected with isolated
higher amounts possible.

Precautionary/preparedness actions...

A Winter Weather Advisory for snow means that periods of snow
will cause primarily travel difficulties. Be prepared for snow
covered roads and limited visibilities... and use caution while
driving.